sensor_id;sensor_type;location;lat;lon;timestamp;P1;durP1;ratioP1;P2;durP2;ratioP2
7361;SDS011;3721;44.490;11.220;2022-08-20T00:00:10;3.57;;;1.73;;
7361;SDS011;3721;44.490;11.220;2022-08-20T00:02:44;3.80;;;1.97;;
7361;SDS011;3721;44.490;11.220;2022-08-20T00:05:16;5.30;;;1.73;;
7361;SDS011;3721;44.490;11.220;2022-08-20T00:07:48;9.13;;;1.90;;
7361;SDS011;3721;44.490;11.220;2022-08-20T00:10:13;4.17;;;1.63;;
7361;SDS011;3721;44.490;11.220;2022-08-20T00:12:42;6.40;;;1.90;;
7361;SDS011;3721;44.490;11.220;2022-08-20T00:15:10;5.80;;;1.70;;
7361;SDS011;3721;44.490;11.220;2022-08-20T00:17:37;5.47;;;1.70;;
7361;SDS011;3721;44.490;11.220;2022-08-20T00:20:04;7.60;;;1.80;;
7361;SDS011;3721;44.490;11.220;2022-08-20T00:22:33;12.57;;;1.97;;
7361;SDS011;3721;44.490;11.220;2022-08-20T00:24:59;6.83;;;2.00;;
7361;SDS011;3721;44.490;11.220;2022-08-20T00:27:25;3.50;;;1.80;;
7361;SDS011;3721;44.490;11.220;2022-08-20T00:29:51;5.67;;;1.97;;
7361;SDS011;3721;44.490;11.220;2022-08-20T00:32:17;7.23;;;2.23;;
7361;SDS011;3721;44.490;11.220;2022-08-20T00:34:42;3.77;;;2.10;;
7361;SDS011;3721;44.490;11.220;2022-08-20T00:37:08;6.37;;;2.03;;
7361;SDS011;3721;44.490;11.220;2022-08-20T00:39:34;3.93;;;1.80;;
7361;SDS011;3721;44.490;11.220;2022-08-20T00:42:00;5.97;;;1.80;;
7361;SDS011;3721;44.490;11.220;2022-08-20T00:44:27;3.47;;;1.63;;
7361;SDS011;3721;44.490;11.220;2022-08-20T00:46:53;4.47;;;1.83;;
7361;SDS011;3721;44.490;11.220;2022-08-20T00:49:21;4.80;;;1.97;;
7361;SDS011;3721;44.490;11.220;2022-08-20T00:54:52;4.63;;;1.87;;
7361;SDS011;3721;44.490;11.220;2022-08-20T00:57:25;4.20;;;2.07;;
7361;SDS011;3721;44.490;11.220;2022-08-20T01:00:12;3.40;;;2.13;;
7361;SDS011;3721;44.490;11.220;2022-08-20T01:02:45;5.50;;;1.80;;
7361;SDS011;3721;44.490;11.220;2022-08-20T01:05:12;3.47;;;2.17;;
7361;SDS011;3721;44.490;11.220;2022-08-20T01:07:39;3.50;;;1.90;;
7361;SDS011;3721;44.490;11.220;2022-08-20T01:12:33;5.37;;;1.90;;
7361;SDS011;3721;44.490;11.220;2022-08-20T01:15:02;7.43;;;2.00;;
7361;SDS011;3721;44.490;11.220;2022-08-20T01:17:30;7.17;;;1.97;;
7361;SDS011;3721;44.490;11.220;2022-08-20T01:20:10;3.97;;;2.00;;
7361;SDS011;3721;44.490;11.220;2022-08-20T01:22:53;4.10;;;1.70;;
7361;SDS011;3721;44.490;11.220;2022-08-20T01:28:36;6.10;;;1.93;;
7361;SDS011;3721;44.490;11.220;2022-08-20T01:31:15;4.23;;;1.80;;
7361;SDS011;3721;44.490;11.220;2022-08-20T01:33:44;12.63;;;1.97;;
7361;SDS011;3721;44.490;11.220;2022-08-20T01:36:11;5.40;;;2.10;;
7361;SDS011;3721;44.490;11.220;2022-08-20T01:38:38;3.40;;;1.93;;
7361;SDS011;3721;44.490;11.220;2022-08-20T01:43:49;5.70;;;2.20;;
7361;SDS011;3721;44.490;11.220;2022-08-20T01:46:20;5.90;;;2.33;;
7361;SDS011;3721;44.490;11.220;2022-08-20T01:49:05;3.07;;;1.70;;
7361;SDS011;3721;44.490;11.220;2022-08-20T01:51:52;5.50;;;2.07;;
7361;SDS011;3721;44.490;11.220;2022-08-20T01:54:19;4.70;;;1.83;;
7361;SDS011;3721;44.490;11.220;2022-08-20T01:59:24;4.27;;;1.90;;
7361;SDS011;3721;44.490;11.220;2022-08-20T02:01:50;4.67;;;1.83;;
7361;SDS011;3721;44.490;11.220;2022-08-20T02:04:16;3.97;;;1.90;;
7361;SDS011;3721;44.490;11.220;2022-08-20T02:06:45;4.03;;;2.10;;
7361;SDS011;3721;44.490;11.220;2022-08-20T02:09:13;4.40;;;1.63;;
7361;SDS011;3721;44.490;11.220;2022-08-20T02:11:39;4.13;;;2.10;;
7361;SDS011;3721;44.490;11.220;2022-08-20T02:14:07;4.10;;;2.10;;
7361;SDS011;3721;44.490;11.220;2022-08-20T02:16:36;4.97;;;2.03;;
7361;SDS011;3721;44.490;11.220;2022-08-20T02:19:12;4.40;;;1.87;;
7361;SDS011;3721;44.490;11.220;2022-08-20T02:21:45;3.77;;;1.87;;
7361;SDS011;3721;44.490;11.220;2022-08-20T02:24:15;5.17;;;2.13;;
7361;SDS011;3721;44.490;11.220;2022-08-20T02:26:42;6.90;;;2.50;;
7361;SDS011;3721;44.490;11.220;2022-08-20T02:29:09;5.33;;;2.07;;
7361;SDS011;3721;44.490;11.220;2022-08-20T02:31:37;5.27;;;2.10;;
7361;SDS011;3721;44.490;11.220;2022-08-20T02:34:05;8.23;;;2.10;;
7361;SDS011;3721;44.490;11.220;2022-08-20T02:36:33;3.50;;;1.80;;
7361;SDS011;3721;44.490;11.220;2022-08-20T02:39:03;4.70;;;1.90;;
7361;SDS011;3721;44.490;11.220;2022-08-20T02:41:31;6.50;;;2.03;;
7361;SDS011;3721;44.490;11.220;2022-08-20T02:43:57;9.27;;;2.07;;
7361;SDS011;3721;44.490;11.220;2022-08-20T02:46:23;3.63;;;1.70;;
7361;SDS011;3721;44.490;11.220;2022-08-20T02:48:50;5.40;;;2.10;;
7361;SDS011;3721;44.490;11.220;2022-08-20T02:51:16;5.93;;;2.30;;
7361;SDS011;3721;44.490;11.220;2022-08-20T02:53:41;3.67;;;2.20;;
7361;SDS011;3721;44.490;11.220;2022-08-20T02:56:09;6.80;;;2.17;;
7361;SDS011;3721;44.490;11.220;2022-08-20T02:58:36;3.90;;;1.60;;
7361;SDS011;3721;44.490;11.220;2022-08-20T03:01:05;4.17;;;1.97;;
7361;SDS011;3721;44.490;11.220;2022-08-20T03:03:32;3.83;;;2.07;;
7361;SDS011;3721;44.490;11.220;2022-08-20T03:05:59;5.83;;;2.20;;
7361;SDS011;3721;44.490;11.220;2022-08-20T03:08:26;4.57;;;2.00;;
7361;SDS011;3721;44.490;11.220;2022-08-20T03:10:53;6.13;;;2.33;;
7361;SDS011;3721;44.490;11.220;2022-08-20T03:13:20;4.87;;;2.13;;
7361;SDS011;3721;44.490;11.220;2022-08-20T03:15:48;4.80;;;2.13;;
7361;SDS011;3721;44.490;11.220;2022-08-20T03:18:17;4.83;;;2.37;;
7361;SDS011;3721;44.490;11.220;2022-08-20T03:20:44;5.20;;;2.40;;
7361;SDS011;3721;44.490;11.220;2022-08-20T03:23:11;5.67;;;2.00;;
7361;SDS011;3721;44.490;11.220;2022-08-20T03:25:37;4.07;;;2.07;;
7361;SDS011;3721;44.490;11.220;2022-08-20T03:28:03;6.20;;;2.50;;
7361;SDS011;3721;44.490;11.220;2022-08-20T03:30:30;4.10;;;2.17;;
7361;SDS011;3721;44.490;11.220;2022-08-20T03:32:56;4.70;;;2.20;;
7361;SDS011;3721;44.490;11.220;2022-08-20T03:35:24;6.27;;;2.70;;
7361;SDS011;3721;44.490;11.220;2022-08-20T03:37:50;4.43;;;2.07;;
7361;SDS011;3721;44.490;11.220;2022-08-20T03:40:23;8.30;;;2.00;;
7361;SDS011;3721;44.490;11.220;2022-08-20T03:42:51;3.07;;;1.77;;
7361;SDS011;3721;44.490;11.220;2022-08-20T03:45:18;3.20;;;2.00;;
7361;SDS011;3721;44.490;11.220;2022-08-20T03:47:44;5.53;;;2.37;;
7361;SDS011;3721;44.490;11.220;2022-08-20T03:50:10;6.63;;;2.20;;
7361;SDS011;3721;44.490;11.220;2022-08-20T03:52:37;3.67;;;2.23;;
7361;SDS011;3721;44.490;11.220;2022-08-20T03:55:04;3.03;;;2.07;;
7361;SDS011;3721;44.490;11.220;2022-08-20T03:57:31;4.80;;;2.37;;
7361;SDS011;3721;44.490;11.220;2022-08-20T03:59:57;3.13;;;1.93;;
7361;SDS011;3721;44.490;11.220;2022-08-20T04:02:23;4.37;;;2.30;;
7361;SDS011;3721;44.490;11.220;2022-08-20T04:04:49;4.20;;;2.13;;
7361;SDS011;3721;44.490;11.220;2022-08-20T04:07:17;4.30;;;2.60;;
7361;SDS011;3721;44.490;11.220;2022-08-20T04:09:50;4.63;;;2.17;;
7361;SDS011;3721;44.490;11.220;2022-08-20T04:12:16;4.70;;;2.07;;
7361;SDS011;3721;44.490;11.220;2022-08-20T04:14:42;6.23;;;2.97;;
7361;SDS011;3721;44.490;11.220;2022-08-20T04:17:09;5.13;;;2.40;;
7361;SDS011;3721;44.490;11.220;2022-08-20T04:19:37;6.47;;;2.30;;
7361;SDS011;3721;44.490;11.220;2022-08-20T04:22:04;8.60;;;2.50;;
7361;SDS011;3721;44.490;11.220;2022-08-20T04:24:32;5.40;;;2.33;;
7361;SDS011;3721;44.490;11.220;2022-08-20T04:26:59;5.80;;;2.10;;
7361;SDS011;3721;44.490;11.220;2022-08-20T04:29:26;4.77;;;2.73;;
7361;SDS011;3721;44.490;11.220;2022-08-20T04:31:53;4.40;;;2.30;;
7361;SDS011;3721;44.490;11.220;2022-08-20T04:34:20;4.80;;;2.63;;
7361;SDS011;3721;44.490;11.220;2022-08-20T04:36:46;6.07;;;2.50;;
7361;SDS011;3721;44.490;11.220;2022-08-20T04:39:13;3.80;;;2.20;;
7361;SDS011;3721;44.490;11.220;2022-08-20T04:41:40;4.60;;;2.83;;
7361;SDS011;3721;44.490;11.220;2022-08-20T04:44:06;5.40;;;2.13;;
7361;SDS011;3721;44.490;11.220;2022-08-20T04:46:33;6.13;;;2.70;;
7361;SDS011;3721;44.490;11.220;2022-08-20T04:48:59;7.93;;;2.90;;
7361;SDS011;3721;44.490;11.220;2022-08-20T04:51:27;4.27;;;2.47;;
7361;SDS011;3721;44.490;11.220;2022-08-20T04:53:53;4.03;;;2.50;;
7361;SDS011;3721;44.490;11.220;2022-08-20T04:56:25;5.30;;;2.83;;
7361;SDS011;3721;44.490;11.220;2022-08-20T04:58:53;5.23;;;2.70;;
7361;SDS011;3721;44.490;11.220;2022-08-20T05:01:21;5.20;;;2.60;;
7361;SDS011;3721;44.490;11.220;2022-08-20T05:03:47;7.93;;;2.80;;
7361;SDS011;3721;44.490;11.220;2022-08-20T05:06:14;4.00;;;2.60;;
7361;SDS011;3721;44.490;11.220;2022-08-20T05:08:41;6.27;;;3.30;;
7361;SDS011;3721;44.490;11.220;2022-08-20T05:11:08;5.03;;;3.07;;
7361;SDS011;3721;44.490;11.220;2022-08-20T05:13:34;4.70;;;2.63;;
7361;SDS011;3721;44.490;11.220;2022-08-20T05:16:00;4.73;;;2.57;;
7361;SDS011;3721;44.490;11.220;2022-08-20T05:18:26;4.43;;;2.80;;
7361;SDS011;3721;44.490;11.220;2022-08-20T05:20:55;3.70;;;2.60;;
7361;SDS011;3721;44.490;11.220;2022-08-20T05:23:26;7.50;;;2.63;;
7361;SDS011;3721;44.490;11.220;2022-08-20T05:25:52;5.97;;;2.53;;
7361;SDS011;3721;44.490;11.220;2022-08-20T05:28:23;4.40;;;2.63;;
7361;SDS011;3721;44.490;11.220;2022-08-20T05:30:50;4.37;;;2.50;;
7361;SDS011;3721;44.490;11.220;2022-08-20T05:33:18;3.30;;;2.03;;
7361;SDS011;3721;44.490;11.220;2022-08-20T05:35:46;6.80;;;2.60;;
7361;SDS011;3721;44.490;11.220;2022-08-20T05:38:13;3.80;;;2.67;;
7361;SDS011;3721;44.490;11.220;2022-08-20T05:40:42;4.70;;;2.50;;
7361;SDS011;3721;44.490;11.220;2022-08-20T05:43:08;4.07;;;2.27;;
7361;SDS011;3721;44.490;11.220;2022-08-20T05:45:34;5.47;;;3.00;;
7361;SDS011;3721;44.490;11.220;2022-08-20T05:48:09;5.27;;;2.70;;
7361;SDS011;3721;44.490;11.220;2022-08-20T05:50:38;5.43;;;2.50;;
7361;SDS011;3721;44.490;11.220;2022-08-20T05:53:06;5.60;;;2.47;;
7361;SDS011;3721;44.490;11.220;2022-08-20T05:55:32;4.00;;;2.43;;
7361;SDS011;3721;44.490;11.220;2022-08-20T05:57:58;5.93;;;2.50;;
7361;SDS011;3721;44.490;11.220;2022-08-20T06:00:26;3.77;;;2.13;;
7361;SDS011;3721;44.490;11.220;2022-08-20T06:02:53;3.93;;;2.17;;
7361;SDS011;3721;44.490;11.220;2022-08-20T06:05:38;3.00;;;2.00;;
7361;SDS011;3721;44.490;11.220;2022-08-20T06:08:05;4.83;;;2.80;;
7361;SDS011;3721;44.490;11.220;2022-08-20T06:10:31;6.17;;;2.87;;
7361;SDS011;3721;44.490;11.220;2022-08-20T06:12:57;4.37;;;2.70;;
7361;SDS011;3721;44.490;11.220;2022-08-20T06:15:23;3.97;;;2.40;;
7361;SDS011;3721;44.490;11.220;2022-08-20T06:17:49;4.10;;;2.40;;
7361;SDS011;3721;44.490;11.220;2022-08-20T06:20:15;3.43;;;1.97;;
7361;SDS011;3721;44.490;11.220;2022-08-20T06:22:40;6.70;;;2.50;;
7361;SDS011;3721;44.490;11.220;2022-08-20T06:25:06;3.87;;;2.00;;
7361;SDS011;3721;44.490;11.220;2022-08-20T06:27:36;5.20;;;2.27;;
7361;SDS011;3721;44.490;11.220;2022-08-20T06:30:03;3.67;;;1.60;;
7361;SDS011;3721;44.490;11.220;2022-08-20T06:32:29;5.00;;;2.10;;
7361;SDS011;3721;44.490;11.220;2022-08-20T06:34:56;4.23;;;2.30;;
7361;SDS011;3721;44.490;11.220;2022-08-20T06:37:24;4.50;;;1.97;;
7361;SDS011;3721;44.490;11.220;2022-08-20T06:39:51;3.83;;;1.90;;
7361;SDS011;3721;44.490;11.220;2022-08-20T06:42:18;3.43;;;1.83;;
7361;SDS011;3721;44.490;11.220;2022-08-20T06:44:45;3.47;;;1.90;;
7361;SDS011;3721;44.490;11.220;2022-08-20T06:47:18;3.67;;;1.97;;
7361;SDS011;3721;44.490;11.220;2022-08-20T06:49:45;3.53;;;1.50;;
7361;SDS011;3721;44.490;11.220;2022-08-20T06:52:12;5.20;;;2.00;;
7361;SDS011;3721;44.490;11.220;2022-08-20T06:54:40;2.90;;;1.87;;
7361;SDS011;3721;44.490;11.220;2022-08-20T06:57:07;5.63;;;2.20;;
7361;SDS011;3721;44.490;11.220;2022-08-20T06:59:33;3.00;;;1.70;;
7361;SDS011;3721;44.490;11.220;2022-08-20T07:01:58;3.23;;;1.60;;
7361;SDS011;3721;44.490;11.220;2022-08-20T07:04:25;5.43;;;2.20;;
7361;SDS011;3721;44.490;11.220;2022-08-20T07:06:51;6.93;;;2.10;;
7361;SDS011;3721;44.490;11.220;2022-08-20T07:09:18;3.27;;;1.70;;
7361;SDS011;3721;44.490;11.220;2022-08-20T07:11:45;2.93;;;1.63;;
7361;SDS011;3721;44.490;11.220;2022-08-20T07:14:12;4.50;;;1.80;;
7361;SDS011;3721;44.490;11.220;2022-08-20T07:16:39;2.77;;;1.43;;
7361;SDS011;3721;44.490;11.220;2022-08-20T07:19:06;4.20;;;1.70;;
7361;SDS011;3721;44.490;11.220;2022-08-20T07:21:32;3.60;;;1.70;;
7361;SDS011;3721;44.490;11.220;2022-08-20T07:23:58;3.10;;;1.60;;
7361;SDS011;3721;44.490;11.220;2022-08-20T07:26:24;3.33;;;1.60;;
7361;SDS011;3721;44.490;11.220;2022-08-20T07:28:51;4.17;;;1.80;;
7361;SDS011;3721;44.490;11.220;2022-08-20T07:31:18;3.10;;;1.73;;
7361;SDS011;3721;44.490;11.220;2022-08-20T07:34:03;3.13;;;1.70;;
7361;SDS011;3721;44.490;11.220;2022-08-20T07:36:29;5.20;;;1.43;;
7361;SDS011;3721;44.490;11.220;2022-08-20T07:38:55;4.07;;;1.90;;
7361;SDS011;3721;44.490;11.220;2022-08-20T07:41:21;4.37;;;1.70;;
7361;SDS011;3721;44.490;11.220;2022-08-20T07:43:47;7.97;;;2.23;;
7361;SDS011;3721;44.490;11.220;2022-08-20T07:46:13;4.23;;;2.10;;
7361;SDS011;3721;44.490;11.220;2022-08-20T07:48:43;3.80;;;1.90;;
7361;SDS011;3721;44.490;11.220;2022-08-20T07:51:11;4.00;;;1.63;;
7361;SDS011;3721;44.490;11.220;2022-08-20T07:53:38;3.10;;;1.80;;
7361;SDS011;3721;44.490;11.220;2022-08-20T07:56:08;3.30;;;1.70;;
7361;SDS011;3721;44.490;11.220;2022-08-20T07:58:37;3.00;;;1.80;;
7361;SDS011;3721;44.490;11.220;2022-08-20T08:01:06;3.30;;;2.00;;
7361;SDS011;3721;44.490;11.220;2022-08-20T08:03:32;4.70;;;1.83;;
7361;SDS011;3721;44.490;11.220;2022-08-20T08:05:58;3.03;;;1.63;;
7361;SDS011;3721;44.490;11.220;2022-08-20T08:08:25;5.23;;;1.93;;
7361;SDS011;3721;44.490;11.220;2022-08-20T08:10:54;4.70;;;1.90;;
7361;SDS011;3721;44.490;11.220;2022-08-20T08:13:24;3.40;;;1.83;;
7361;SDS011;3721;44.490;11.220;2022-08-20T08:15:51;4.13;;;1.70;;
7361;SDS011;3721;44.490;11.220;2022-08-20T08:18:24;3.30;;;1.80;;
7361;SDS011;3721;44.490;11.220;2022-08-20T08:20:54;3.40;;;1.80;;
7361;SDS011;3721;44.490;11.220;2022-08-20T08:23:21;3.43;;;1.60;;
7361;SDS011;3721;44.490;11.220;2022-08-20T08:25:48;3.37;;;1.73;;
7361;SDS011;3721;44.490;11.220;2022-08-20T08:28:17;3.50;;;1.80;;
7361;SDS011;3721;44.490;11.220;2022-08-20T08:30:44;5.23;;;1.90;;
7361;SDS011;3721;44.490;11.220;2022-08-20T08:33:19;3.20;;;1.83;;
7361;SDS011;3721;44.490;11.220;2022-08-20T08:35:52;3.53;;;1.70;;
7361;SDS011;3721;44.490;11.220;2022-08-20T08:38:20;3.97;;;1.87;;
7361;SDS011;3721;44.490;11.220;2022-08-20T08:40:50;4.10;;;1.80;;
7361;SDS011;3721;44.490;11.220;2022-08-20T08:43:19;5.33;;;1.87;;
7361;SDS011;3721;44.490;11.220;2022-08-20T08:45:51;5.57;;;1.90;;
7361;SDS011;3721;44.490;11.220;2022-08-20T08:48:22;4.30;;;1.77;;
7361;SDS011;3721;44.490;11.220;2022-08-20T08:51:01;4.77;;;1.87;;
7361;SDS011;3721;44.490;11.220;2022-08-20T08:53:37;3.93;;;1.67;;
7361;SDS011;3721;44.490;11.220;2022-08-20T08:56:06;4.80;;;2.00;;
7361;SDS011;3721;44.490;11.220;2022-08-20T08:58:34;5.83;;;1.83;;
7361;SDS011;3721;44.490;11.220;2022-08-20T09:01:07;3.70;;;1.60;;
7361;SDS011;3721;44.490;11.220;2022-08-20T09:03:38;3.90;;;2.00;;
7361;SDS011;3721;44.490;11.220;2022-08-20T09:06:09;3.97;;;1.73;;
7361;SDS011;3721;44.490;11.220;2022-08-20T09:09:01;3.80;;;2.20;;
7361;SDS011;3721;44.490;11.220;2022-08-20T09:11:29;4.10;;;2.10;;
7361;SDS011;3721;44.490;11.220;2022-08-20T09:13:55;3.30;;;1.60;;
7361;SDS011;3721;44.490;11.220;2022-08-20T09:16:22;6.40;;;1.80;;
7361;SDS011;3721;44.490;11.220;2022-08-20T09:18:49;4.13;;;2.10;;
7361;SDS011;3721;44.490;11.220;2022-08-20T09:21:15;3.87;;;1.90;;
7361;SDS011;3721;44.490;11.220;2022-08-20T09:23:42;4.80;;;1.97;;
7361;SDS011;3721;44.490;11.220;2022-08-20T09:26:08;3.97;;;1.87;;
7361;SDS011;3721;44.490;11.220;2022-08-20T09:28:33;7.93;;;2.20;;
7361;SDS011;3721;44.490;11.220;2022-08-20T09:30:59;7.23;;;2.10;;
7361;SDS011;3721;44.490;11.220;2022-08-20T09:33:26;4.10;;;2.20;;
7361;SDS011;3721;44.490;11.220;2022-08-20T09:35:52;3.30;;;1.97;;
7361;SDS011;3721;44.490;11.220;2022-08-20T09:38:17;2.90;;;1.70;;
7361;SDS011;3721;44.490;11.220;2022-08-20T09:40:44;3.17;;;1.70;;
7361;SDS011;3721;44.490;11.220;2022-08-20T09:43:10;4.30;;;1.83;;
7361;SDS011;3721;44.490;11.220;2022-08-20T09:45:35;4.60;;;2.10;;
7361;SDS011;3721;44.490;11.220;2022-08-20T09:48:01;4.57;;;1.80;;
7361;SDS011;3721;44.490;11.220;2022-08-20T09:50:28;8.90;;;1.93;;
7361;SDS011;3721;44.490;11.220;2022-08-20T09:52:59;3.70;;;1.90;;
7361;SDS011;3721;44.490;11.220;2022-08-20T09:55:30;5.17;;;1.70;;
7361;SDS011;3721;44.490;11.220;2022-08-20T09:58:02;4.10;;;2.07;;
7361;SDS011;3721;44.490;11.220;2022-08-20T10:00:32;3.70;;;1.80;;
7361;SDS011;3721;44.490;11.220;2022-08-20T10:02:58;4.00;;;2.40;;
7361;SDS011;3721;44.490;11.220;2022-08-20T10:05:34;3.20;;;1.60;;
7361;SDS011;3721;44.490;11.220;2022-08-20T10:08:07;3.03;;;1.70;;
7361;SDS011;3721;44.490;11.220;2022-08-20T10:10:56;2.70;;;1.50;;
7361;SDS011;3721;44.490;11.220;2022-08-20T10:13:27;3.10;;;1.60;;
7361;SDS011;3721;44.490;11.220;2022-08-20T10:16:02;3.50;;;1.60;;
7361;SDS011;3721;44.490;11.220;2022-08-20T10:18:38;3.10;;;1.50;;
7361;SDS011;3721;44.490;11.220;2022-08-20T10:21:21;2.90;;;1.50;;
7361;SDS011;3721;44.490;11.220;2022-08-20T10:27:01;3.57;;;1.50;;
7361;SDS011;3721;44.490;11.220;2022-08-20T10:29:35;6.70;;;1.80;;
7361;SDS011;3721;44.490;11.220;2022-08-20T10:32:11;5.03;;;1.60;;
7361;SDS011;3721;44.490;11.220;2022-08-20T10:35:03;2.97;;;1.87;;
7361;SDS011;3721;44.490;11.220;2022-08-20T10:37:41;4.43;;;1.80;;
7361;SDS011;3721;44.490;11.220;2022-08-20T10:40:16;3.20;;;1.77;;
7361;SDS011;3721;44.490;11.220;2022-08-20T10:42:47;2.83;;;1.60;;
7361;SDS011;3721;44.490;11.220;2022-08-20T10:45:26;2.90;;;1.50;;
7361;SDS011;3721;44.490;11.220;2022-08-20T10:48:01;3.47;;;1.60;;
7361;SDS011;3721;44.490;11.220;2022-08-20T10:51:20;3.40;;;1.57;;
7361;SDS011;3721;44.490;11.220;2022-08-20T10:53:49;3.40;;;1.60;;
7361;SDS011;3721;44.490;11.220;2022-08-20T10:56:41;4.50;;;1.73;;
7361;SDS011;3721;44.490;11.220;2022-08-20T10:59:14;3.90;;;1.50;;
7361;SDS011;3721;44.490;11.220;2022-08-20T11:01:49;3.60;;;1.57;;
7361;SDS011;3721;44.490;11.220;2022-08-20T11:04:20;6.33;;;1.80;;
7361;SDS011;3721;44.490;11.220;2022-08-20T11:10:17;2.80;;;1.37;;
7361;SDS011;3721;44.490;11.220;2022-08-20T11:13:05;2.93;;;1.57;;
7361;SDS011;3721;44.490;11.220;2022-08-20T11:16:04;3.63;;;1.60;;
7361;SDS011;3721;44.490;11.220;2022-08-20T11:18:57;4.20;;;1.60;;
7361;SDS011;3721;44.490;11.220;2022-08-20T11:21:57;3.20;;;1.57;;
7361;SDS011;3721;44.490;11.220;2022-08-20T11:27:37;5.27;;;1.40;;
7361;SDS011;3721;44.490;11.220;2022-08-20T11:30:07;3.20;;;1.50;;
7361;SDS011;3721;44.490;11.220;2022-08-20T11:32:35;7.93;;;1.70;;
7361;SDS011;3721;44.490;11.220;2022-08-20T11:35:02;2.83;;;1.60;;
7361;SDS011;3721;44.490;11.220;2022-08-20T11:37:28;2.63;;;1.30;;
7361;SDS011;3721;44.490;11.220;2022-08-20T11:39:53;5.10;;;1.47;;
7361;SDS011;3721;44.490;11.220;2022-08-20T11:42:19;2.70;;;1.50;;
7361;SDS011;3721;44.490;11.220;2022-08-20T11:44:45;2.83;;;1.40;;
7361;SDS011;3721;44.490;11.220;2022-08-20T11:47:18;2.87;;;1.50;;
7361;SDS011;3721;44.490;11.220;2022-08-20T11:49:54;2.83;;;1.57;;
7361;SDS011;3721;44.490;11.220;2022-08-20T11:52:28;2.90;;;1.57;;
7361;SDS011;3721;44.490;11.220;2022-08-20T11:54:54;2.80;;;1.30;;
7361;SDS011;3721;44.490;11.220;2022-08-20T11:57:21;2.97;;;1.40;;
7361;SDS011;3721;44.490;11.220;2022-08-20T11:59:52;3.33;;;1.30;;
7361;SDS011;3721;44.490;11.220;2022-08-20T12:02:19;5.47;;;1.63;;
7361;SDS011;3721;44.490;11.220;2022-08-20T12:04:45;3.07;;;1.50;;
7361;SDS011;3721;44.490;11.220;2022-08-20T12:07:13;4.73;;;1.50;;
7361;SDS011;3721;44.490;11.220;2022-08-20T12:09:42;3.50;;;1.60;;
7361;SDS011;3721;44.490;11.220;2022-08-20T12:12:08;4.60;;;1.70;;
7361;SDS011;3721;44.490;11.220;2022-08-20T12:14:35;2.80;;;1.53;;
7361;SDS011;3721;44.490;11.220;2022-08-20T12:17:08;3.77;;;1.73;;
7361;SDS011;3721;44.490;11.220;2022-08-20T12:19:38;3.50;;;1.53;;
7361;SDS011;3721;44.490;11.220;2022-08-20T12:22:05;3.17;;;1.53;;
7361;SDS011;3721;44.490;11.220;2022-08-20T12:24:31;3.20;;;1.50;;
7361;SDS011;3721;44.490;11.220;2022-08-20T12:27:10;5.13;;;1.80;;
7361;SDS011;3721;44.490;11.220;2022-08-20T12:29:39;3.90;;;1.40;;
7361;SDS011;3721;44.490;11.220;2022-08-20T12:32:06;3.10;;;1.57;;
7361;SDS011;3721;44.490;11.220;2022-08-20T12:34:33;2.70;;;1.40;;
7361;SDS011;3721;44.490;11.220;2022-08-20T12:37:04;4.00;;;1.70;;
7361;SDS011;3721;44.490;11.220;2022-08-20T12:39:33;4.93;;;1.50;;
7361;SDS011;3721;44.490;11.220;2022-08-20T12:42:02;3.43;;;1.67;;
7361;SDS011;3721;44.490;11.220;2022-08-20T12:44:28;4.90;;;1.40;;
7361;SDS011;3721;44.490;11.220;2022-08-20T12:49:40;6.07;;;1.50;;
7361;SDS011;3721;44.490;11.220;2022-08-20T12:52:09;2.67;;;1.30;;
7361;SDS011;3721;44.490;11.220;2022-08-20T12:54:36;4.00;;;1.70;;
7361;SDS011;3721;44.490;11.220;2022-08-20T12:57:02;3.03;;;1.40;;
7361;SDS011;3721;44.490;11.220;2022-08-20T12:59:29;3.03;;;1.40;;
7361;SDS011;3721;44.490;11.220;2022-08-20T13:01:55;3.07;;;1.50;;
7361;SDS011;3721;44.490;11.220;2022-08-20T13:04:20;3.03;;;1.53;;
7361;SDS011;3721;44.490;11.220;2022-08-20T13:06:46;3.20;;;1.40;;
7361;SDS011;3721;44.490;11.220;2022-08-20T13:09:13;2.90;;;1.47;;
7361;SDS011;3721;44.490;11.220;2022-08-20T13:11:40;3.73;;;1.80;;
7361;SDS011;3721;44.490;11.220;2022-08-20T13:14:05;2.50;;;1.30;;
7361;SDS011;3721;44.490;11.220;2022-08-20T13:16:31;3.13;;;1.47;;
7361;SDS011;3721;44.490;11.220;2022-08-20T13:18:57;4.27;;;1.47;;
7361;SDS011;3721;44.490;11.220;2022-08-20T13:21:23;2.63;;;1.40;;
7361;SDS011;3721;44.490;11.220;2022-08-20T13:23:48;3.27;;;1.43;;
7361;SDS011;3721;44.490;11.220;2022-08-20T13:26:15;2.70;;;1.37;;
7361;SDS011;3721;44.490;11.220;2022-08-20T13:28:44;2.90;;;1.47;;
7361;SDS011;3721;44.490;11.220;2022-08-20T13:31:10;2.97;;;1.40;;
7361;SDS011;3721;44.490;11.220;2022-08-20T13:33:36;2.97;;;1.53;;
7361;SDS011;3721;44.490;11.220;2022-08-20T13:36:02;3.57;;;1.60;;
7361;SDS011;3721;44.490;11.220;2022-08-20T13:38:28;3.63;;;1.50;;
7361;SDS011;3721;44.490;11.220;2022-08-20T13:40:53;3.30;;;1.50;;
7361;SDS011;3721;44.490;11.220;2022-08-20T13:43:19;3.00;;;1.50;;
7361;SDS011;3721;44.490;11.220;2022-08-20T13:45:45;3.13;;;1.60;;
7361;SDS011;3721;44.490;11.220;2022-08-20T13:48:11;3.10;;;1.63;;
7361;SDS011;3721;44.490;11.220;2022-08-20T13:50:36;3.40;;;1.50;;
7361;SDS011;3721;44.490;11.220;2022-08-20T13:53:02;3.40;;;1.43;;
7361;SDS011;3721;44.490;11.220;2022-08-20T13:55:28;3.80;;;1.57;;
7361;SDS011;3721;44.490;11.220;2022-08-20T13:57:55;3.50;;;1.70;;
7361;SDS011;3721;44.490;11.220;2022-08-20T14:00:27;3.17;;;1.53;;
7361;SDS011;3721;44.490;11.220;2022-08-20T14:02:54;3.37;;;1.60;;
7361;SDS011;3721;44.490;11.220;2022-08-20T14:05:20;3.57;;;1.50;;
7361;SDS011;3721;44.490;11.220;2022-08-20T14:07:47;3.33;;;1.50;;
7361;SDS011;3721;44.490;11.220;2022-08-20T14:10:18;6.50;;;1.50;;
7361;SDS011;3721;44.490;11.220;2022-08-20T14:12:46;2.70;;;1.37;;
7361;SDS011;3721;44.490;11.220;2022-08-20T14:15:12;3.00;;;1.60;;
7361;SDS011;3721;44.490;11.220;2022-08-20T14:17:39;4.27;;;1.50;;
7361;SDS011;3721;44.490;11.220;2022-08-20T14:20:09;4.00;;;1.47;;
7361;SDS011;3721;44.490;11.220;2022-08-20T14:22:37;4.50;;;1.67;;
7361;SDS011;3721;44.490;11.220;2022-08-20T14:25:04;2.70;;;1.50;;
7361;SDS011;3721;44.490;11.220;2022-08-20T14:27:31;3.00;;;1.40;;
7361;SDS011;3721;44.490;11.220;2022-08-20T14:29:58;3.77;;;1.67;;
7361;SDS011;3721;44.490;11.220;2022-08-20T14:32:25;2.70;;;1.33;;
7361;SDS011;3721;44.490;11.220;2022-08-20T14:34:51;3.43;;;1.63;;
7361;SDS011;3721;44.490;11.220;2022-08-20T14:37:24;3.97;;;1.60;;
7361;SDS011;3721;44.490;11.220;2022-08-20T14:39:53;2.90;;;1.60;;
7361;SDS011;3721;44.490;11.220;2022-08-20T14:42:21;3.10;;;1.40;;
7361;SDS011;3721;44.490;11.220;2022-08-20T14:44:48;6.10;;;1.40;;
7361;SDS011;3721;44.490;11.220;2022-08-20T14:47:15;2.70;;;1.40;;
7361;SDS011;3721;44.490;11.220;2022-08-20T14:49:45;2.83;;;1.23;;
7361;SDS011;3721;44.490;11.220;2022-08-20T14:52:13;2.70;;;1.40;;
7361;SDS011;3721;44.490;11.220;2022-08-20T14:54:41;2.90;;;1.50;;
7361;SDS011;3721;44.490;11.220;2022-08-20T14:57:07;2.97;;;1.30;;
7361;SDS011;3721;44.490;11.220;2022-08-20T14:59:34;3.43;;;1.60;;
7361;SDS011;3721;44.490;11.220;2022-08-20T15:02:02;3.00;;;1.57;;
7361;SDS011;3721;44.490;11.220;2022-08-20T15:04:32;2.73;;;1.37;;
7361;SDS011;3721;44.490;11.220;2022-08-20T15:06:58;3.07;;;1.40;;
7361;SDS011;3721;44.490;11.220;2022-08-20T15:09:28;3.43;;;1.50;;
7361;SDS011;3721;44.490;11.220;2022-08-20T15:11:55;3.00;;;1.30;;
7361;SDS011;3721;44.490;11.220;2022-08-20T15:14:21;3.87;;;1.47;;
7361;SDS011;3721;44.490;11.220;2022-08-20T15:16:46;3.00;;;1.33;;
7361;SDS011;3721;44.490;11.220;2022-08-20T15:19:12;7.13;;;1.40;;
7361;SDS011;3721;44.490;11.220;2022-08-20T15:21:38;3.23;;;1.40;;
7361;SDS011;3721;44.490;11.220;2022-08-20T15:24:04;3.57;;;1.60;;
7361;SDS011;3721;44.490;11.220;2022-08-20T15:26:30;4.33;;;1.50;;
7361;SDS011;3721;44.490;11.220;2022-08-20T15:28:55;2.90;;;1.40;;
7361;SDS011;3721;44.490;11.220;2022-08-20T15:31:21;2.63;;;1.30;;
7361;SDS011;3721;44.490;11.220;2022-08-20T15:33:47;3.83;;;1.53;;
7361;SDS011;3721;44.490;11.220;2022-08-20T15:36:13;4.53;;;1.77;;